< < Back
Terminal Aerodrome Forecast


Current Version              Previous Versions:   1  2  3  4  5  6  7  8  9  

Terminal Aerodrome Forecast

837
FTUS42 KMLB 012207 AAB
TAFDAB
TAF AMD
KDAB 012207Z 0122/0218 22005KT 5SM -RA BR FEW012 BKN030 OVC080
      TEMPO 0122/0124 3SM RA BKN010 OVC020
     FM020000 20004KT P6SM FEW025 BKN150 BKN250
     FM021400 23014G21KT P6SM SCT030 BKN060=

Latest METAR

000
SAUS80 KWBC 012200 RRH
MTRDAB
METAR KDAB 012153Z 21003KT 4SM -RA BR FEW013 BKN030 OVC090 24/23 A2994
RMK AO2 WSHFT 2056 SLP139 P0111 T02390233


USA.gov is the U.S. government's official web portal to all federal, state and local government web resources and services.